Time;durP1;ratioP1;P1;durP2;ratioP2;P2;SDS_P1;SDS_P2;PMS_P1;PMS_P2;Temp;Humidity;BMP_temperature;BMP_pressure;BME280_temperature;BME280_humidity;BME280_pressure;Samples;Min_cycle;Max_cycle;Signal;HPM_P1;HPM_P2
2021/03/08 00:00:51;;;;;;;9.43;8.52;;;3.90;59.90;;;;;;4903482;29;20161;-89
2021/03/08 00:06:53;;;;;;;9.75;8.85;;;4.10;57.40;;;;;;4864974;29;20242;-88
2021/03/08 00:22:04;;;;;;;10.40;9.40;;;6.60;60.80;;;;;;4864578;29;20202;-88
2021/03/08 00:24:46;;;;;;;9.20;8.40;;;6.50;61.20;;;;;;4821399;29;20191;-89
2021/03/08 00:27:48;;;;;;;11.20;10.10;;;4.20;60.00;;;;;;4866413;29;20196;-88
2021/03/08 01:52:12;;;;;;;14.35;12.00;;;4.00;61.10;;;;;;5221975;23;23158;-87
2021/03/08 01:54:38;;;;;;;18.95;13.80;;;4.10;61.30;;;;;;4883441;29;20241;-90
2021/03/08 01:57:11;;;;;;;15.93;12.63;;;4.00;63.70;;;;;;4887335;29;20162;-89
2021/03/08 02:10:00;;;;;;;15.23;13.20;;;4.00;61.10;;;;;;5103213;23;20233;-88
2021/03/08 02:26:00;;;;;;;16.83;14.85;;;3.90;61.60;;;;;;5247457;23;20233;-88
2021/03/08 02:28:39;;;;;;;17.58;15.00;;;6.40;65.70;;;;;;4887800;29;20182;-89
2021/03/08 02:31:21;;;;;;;15.45;13.85;;;3.00;61.50;;;;;;4888427;29;20185;-89
2021/03/08 02:33:51;;;;;;;18.00;13.95;;;3.70;65.40;;;;;;4887495;29;20185;-89
2021/03/08 02:36:23;;;;;;;19.15;14.10;;;3.80;65.40;;;;;;4904130;29;20236;-89
2021/03/08 02:38:55;;;;;;;22.10;14.80;;;3.90;65.00;;;;;;4887973;29;20181;-89
2021/03/08 02:41:24;;;;;;;16.33;13.38;;;4.00;64.80;;;;;;4887661;29;20165;-89
2021/03/08 02:44:18;;;;;;;19.52;15.32;;;3.80;64.30;;;;;;4904179;29;20158;-89
2021/03/08 02:47:18;;;;;;;17.80;13.80;;;5.60;65.00;;;;;;4886770;29;20252;-89
2021/03/08 02:50:19;;;;;;;15.48;13.88;;;3.90;64.80;;;;;;4855254;29;20209;-89
2021/03/08 02:53:27;;;;;;;21.40;14.07;;;3.50;61.70;;;;;;4903599;29;20220;-88
2021/03/08 02:56:46;;;;;;;19.40;14.90;;;6.40;65.90;;;;;;4883500;29;20182;-89
2021/03/08 02:59:55;;;;;;;15.57;13.77;;;6.40;66.50;;;;;;4902345;29;20249;-88
2021/03/08 03:03:41;;;;;;;20.00;14.65;;;3.00;62.60;;;;;;4891898;29;20170;-89
2021/03/08 03:06:15;;;;;;;17.13;14.50;;;5.30;66.50;;;;;;4887119;29;20172;-89
2021/03/08 03:09:18;;;;;;;19.42;16.08;;;3.70;64.80;;;;;;4887357;29;20193;-88
2021/03/08 03:12:13;;;;;;;19.90;14.35;;;6.10;67.20;;;;;;4887103;29;20185;-89
2021/03/08 03:15:35;;;;;;;16.02;13.35;;;3.90;68.20;;;;;;4903125;29;20166;-90
2021/03/08 03:19:01;;;;;;;19.45;14.90;;;5.10;66.40;;;;;;4902862;29;20182;-89
2021/03/08 03:25:07;;;;;;;20.58;14.93;;;4.80;66.60;;;;;;4902058;29;20219;-89
2021/03/08 03:27:54;;;;;;;18.13;14.15;;;3.60;68.60;;;;;;4886552;29;20241;-89
2021/03/08 03:30:35;;;;;;;18.48;14.32;;;6.00;68.70;;;;;;4848240;29;20726;-89
2021/03/08 03:33:11;;;;;;;18.27;14.32;;;3.90;66.20;;;;;;4848454;29;20263;-89
2021/03/08 03:35:47;;;;;;;18.95;14.82;;;3.80;68.50;;;;;;4848902;29;20186;-89
2021/03/08 03:38:22;;;;;;;17.15;13.82;;;4.10;65.40;;;;;;4864233;29;20166;-88
2021/03/08 03:41:34;;;;;;;20.40;14.82;;;3.70;67.70;;;;;;4848187;29;20240;-89
2021/03/08 03:44:12;;;;;;;20.15;14.15;;;5.00;67.00;;;;;;4832225;29;20301;-84
2021/03/08 03:46:59;;;;;;;15.43;13.38;;;1.50;62.00;;;;;;4843844;29;20191;-88
2021/03/08 03:52:36;;;;;;;19.70;14.07;;;3.80;64.50;;;;;;4863595;29;20230;-88
2021/03/08 03:55:25;;;;;;;21.98;15.18;;;3.60;69.40;;;;;;4833247;29;20187;-88
2021/03/08 03:58:32;;;;;;;24.55;16.55;;;4.00;67.10;;;;;;4841370;29;20172;-82
2021/03/08 04:01:15;;;;;;;21.50;15.98;;;4.60;68.20;;;;;;4864146;29;20181;-88
2021/03/08 04:04:14;;;;;;;21.52;15.35;;;3.10;66.00;;;;;;4848621;29;20200;-89
2021/03/08 04:06:52;;;;;;;22.45;15.25;;;6.10;69.70;;;;;;4848842;29;20300;-88
2021/03/08 04:09:35;;;;;;;22.08;15.25;;;3.60;69.40;;;;;;4849788;29;20174;-89
2021/03/08 04:13:07;;;;;;;24.20;16.17;;;5.40;68.20;;;;;;4849315;29;20219;-88
2021/03/08 04:15:52;;;;;;;22.08;16.30;;;4.10;67.10;;;;;;4848580;29;20214;-88
2021/03/08 04:19:08;;;;;;;20.02;15.98;;;3.60;70.50;;;;;;4832676;29;20215;-88
2021/03/08 04:22:01;;;;;;;24.90;16.55;;;6.30;69.80;;;;;;4833765;29;20194;-88
2021/03/08 04:24:46;;;;;;;30.33;18.23;;;3.90;66.50;;;;;;4837484;29;20184;-88
2021/03/08 04:27:55;;;;;;;26.42;17.00;;;3.50;69.30;;;;;;4858420;29;20221;-88
2021/03/08 04:30:59;;;;;;;27.73;17.90;;;5.50;68.30;;;;;;4888698;29;20233;-87
2021/03/08 04:33:44;;;;;;;26.50;17.80;;;5.90;68.50;;;;;;4905606;29;20193;-87
2021/03/08 04:36:35;;;;;;;27.13;18.05;;;6.20;68.30;;;;;;4905876;29;20182;-88
2021/03/08 04:42:19;;;;;;;29.45;19.17;;;6.30;69.00;;;;;;4904834;29;20180;-88
2021/03/08 04:45:32;;;;;;;25.33;17.83;;;4.30;66.70;;;;;;4889825;29;20191;-88
2021/03/08 04:48:42;;;;;;;28.00;17.95;;;5.80;71.10;;;;;;4905052;29;20158;-88
2021/03/08 04:52:08;;;;;;;26.85;17.63;;;6.10;69.70;;;;;;4887780;29;20198;-88
2021/03/08 04:54:52;;;;;;;24.80;18.55;;;5.00;68.40;;;;;;4872465;29;20189;-86
2021/03/08 04:57:51;;;;;;;25.75;17.80;;;3.60;68.70;;;;;;4888825;29;20257;-88
2021/03/08 05:03:11;;;;;;;22.67;16.58;;;2.70;64.00;;;;;;4904257;29;20197;-88
2021/03/08 05:06:19;;;;;;;20.50;15.40;;;3.50;70.10;;;;;;4904323;29;20191;-88
2021/03/08 05:09:13;;;;;;;27.25;15.45;;;3.50;71.00;;;;;;4889035;29;20189;-88
2021/03/08 05:12:03;;;;;;;21.00;15.60;;;5.70;71.20;;;;;;4887405;29;20240;-88
2021/03/08 05:15:32;;;;;;;20.88;16.20;;;5.00;71.00;;;;;;4902749;29;20202;-88
2021/03/08 05:18:16;;;;;;;27.35;16.30;;;3.50;72.20;;;;;;4886230;29;20181;-89
2021/03/08 05:21:00;;;;;;;27.27;16.70;;;3.40;72.00;;;;;;4903842;29;20182;-88
2021/03/08 05:23:48;;;;;;;20.70;17.00;;;3.40;68.70;;;;;;4887231;29;20192;-87
2021/03/08 05:26:16;;;;;;;23.58;16.83;;;3.30;72.30;;;;;;4855492;29;20181;-88
2021/03/08 05:29:02;;;;;;;27.20;16.88;;;3.50;72.20;;;;;;4901904;29;20177;-88
2021/03/08 05:31:35;;;;;;;25.13;16.35;;;4.20;70.90;;;;;;4901357;29;20221;-88
2021/03/08 05:34:13;;;;;;;23.58;17.48;;;4.00;72.30;;;;;;4865622;29;20193;-86
2021/03/08 05:36:49;;;;;;;28.00;17.75;;;3.50;69.40;;;;;;4852256;29;20215;-86
2021/03/08 05:39:34;;;;;;;29.75;18.33;;;3.40;73.10;;;;;;4897468;29;20153;-88
2021/03/08 05:42:24;;;;;;;28.63;19.17;;;6.10;73.80;;;;;;4901444;29;20181;-88
2021/03/08 05:45:37;;;;;;;28.10;18.80;;;3.70;70.70;;;;;;4897097;29;20213;-88
2021/03/08 05:48:34;;;;;;;32.25;18.15;;;6.00;73.70;;;;;;4902106;29;20180;-88
2021/03/08 05:51:50;;;;;;;31.63;18.85;;;5.90;73.20;;;;;;4884499;29;20165;-87
2021/03/08 05:54:54;;;;;;;30.80;19.50;;;3.70;71.90;;;;;;4870673;29;20209;-88
2021/03/08 05:57:31;;;;;;;26.83;19.52;;;3.70;72.70;;;;;;4886089;29;20197;-88
2021/03/08 06:00:49;;;;;;;27.90;17.75;;;3.20;74.70;;;;;;4885182;29;20173;-87
2021/03/08 06:03:52;;;;;;;31.80;19.48;;;4.20;73.90;;;;;;4881357;29;20201;-88
2021/03/08 06:07:16;;;;;;;30.90;18.67;;;5.70;74.60;;;;;;4886783;29;20161;-88
2021/03/08 06:12:49;;;;;;;25.70;18.08;;;3.70;71.40;;;;;;4902673;29;20284;-87
2021/03/08 06:15:29;;;;;;;26.15;17.52;;;3.40;73.80;;;;;;4885648;29;20162;-89
2021/03/08 06:18:20;;;;;;;32.35;18.40;;;2.50;70.10;;;;;;4885728;29;20233;-88
2021/03/08 06:21:30;;;;;;;31.45;18.33;;;3.50;73.60;;;;;;4900987;29;20196;-89
2021/03/08 06:24:29;;;;;;;;;;;;;;;;;;;;;
2021/03/08 06:27:32;;;;;;;32.63;19.25;;;3.70;73.00;;;;;;4879332;29;20618;-86
2021/03/08 06:30:04;;;;;;;29.55;19.05;;;3.60;73.00;;;;;;4884407;29;20173;-87
2021/03/08 06:32:33;;;;;;;32.45;20.70;;;3.60;73.00;;;;;;4884532;29;20225;-87
2021/03/08 06:35:00;;;;;;;32.25;21.27;;;3.70;69.10;;;;;;4901385;29;20193;-84
2021/03/08 06:38:02;;;;;;;31.95;23.10;;;3.60;71.20;;;;;;4897153;29;20181;-88
2021/03/08 06:40:37;;;;;;;37.22;19.60;;;3.90;71.20;;;;;;4896499;29;20240;-88
2021/03/08 06:43:10;;;;;;;38.80;21.67;;;3.80;73.30;;;;;;4894812;29;20193;-87
2021/03/08 06:45:46;;;;;;;34.65;21.10;;;5.30;71.10;;;;;;4888737;29;20177;-87
2021/03/08 06:48:31;;;;;;;34.22;20.40;;;3.70;71.90;;;;;;4897407;29;20193;-88
2021/03/08 06:51:56;;;;;;;35.58;20.90;;;3.20;69.10;;;;;;4894877;29;20181;-88
2021/03/08 06:54:24;;;;;;;36.55;22.92;;;4.30;70.60;;;;;;4900796;29;20219;-88
2021/03/08 07:00:30;;;;;;;32.75;21.95;;;3.90;67.80;;;;;;4899826;29;20164;-87
2021/03/08 07:03:03;;;;;;;37.38;20.75;;;6.50;72.50;;;;;;4897888;29;20210;-89
2021/03/08 07:05:35;;;;;;;40.60;23.67;;;4.00;69.30;;;;;;4897172;29;20174;-89
2021/03/08 07:08:04;;;;;;;35.55;22.70;;;2.70;67.60;;;;;;4880917;29;20204;-88
2021/03/08 07:10:35;;;;;;;41.72;20.98;;;4.10;70.70;;;;;;4896518;29;20169;-88
2021/03/08 07:13:08;;;;;;;39.05;21.10;;;4.10;71.20;;;;;;4878109;29;20197;-86
2021/03/08 07:16:02;;;;;;;39.50;22.58;;;4.20;68.20;;;;;;4895721;29;20198;-87
2021/03/08 07:18:29;;;;;;;34.70;20.17;;;5.20;70.70;;;;;;4877093;29;20177;-89
2021/03/08 07:21:15;;;;;;;36.08;21.55;;;4.10;72.00;;;;;;4861746;29;20182;-89
2021/03/08 07:23:42;;;;;;;47.95;28.30;;;4.10;73.10;;;;;;4876036;29;20181;-89
2021/03/08 07:26:14;;;;;;;50.22;25.30;;;4.10;72.40;;;;;;4877658;29;20178;-87
2021/03/08 07:28:44;;;;;;;43.10;25.45;;;3.90;71.30;;;;;;4873703;29;20209;-89
2021/03/08 07:36:34;;;;;;;43.35;24.67;;;3.90;71.10;;;;;;4932134;29;20248;-89
2021/03/08 07:39:18;;;;;;;42.08;26.05;;;3.90;73.80;;;;;;4933786;29;20267;-88
2021/03/08 07:41:54;;;;;;;46.70;27.25;;;3.90;75.50;;;;;;4933393;29;20172;-89
2021/03/08 07:44:24;;;;;;;45.22;26.33;;;3.80;75.90;;;;;;4898809;29;20190;-87
2021/03/08 07:46:52;;;;;;;57.45;30.33;;;3.70;75.60;;;;;;4911880;29;20191;-91
2021/03/08 07:49:37;;;;;;;53.50;28.75;;;3.80;76.00;;;;;;4929529;29;20236;-90
2021/03/08 07:52:11;;;;;;;51.53;28.10;;;4.50;75.90;;;;;;4932482;29;20258;-88
2021/03/08 07:55:02;;;;;;;55.00;30.55;;;4.20;74.50;;;;;;4931653;29;20235;-86
2021/03/08 07:57:31;;;;;;;56.63;28.70;;;4.40;76.80;;;;;;4914179;29;20207;-91
2021/03/08 08:00:07;;;;;;;50.40;27.83;;;2.70;78.20;;;;;;4914253;29;20241;-90
2021/03/08 08:02:33;;;;;;;44.13;26.75;;;4.90;76.90;;;;;;4898491;29;20246;-90
2021/03/08 08:04:59;;;;;;;50.17;28.30;;;3.80;78.60;;;;;;4915186;29;20180;-89
2021/03/08 08:07:26;;;;;;;53.83;29.47;;;3.80;77.90;;;;;;4917362;29;20930;-90
2021/03/08 08:09:58;;;;;;;46.78;27.83;;;3.90;76.70;;;;;;4918249;29;20212;-89
2021/03/08 08:12:33;;;;;;;49.60;27.20;;;3.90;77.00;;;;;;4918299;29;20216;-85
2021/03/08 08:15:03;;;;;;;52.53;27.20;;;2.90;73.20;;;;;;4935908;29;20603;-88
2021/03/08 08:17:34;;;;;;;53.10;28.35;;;3.60;78.70;;;;;;4916594;29;20180;-89
2021/03/08 08:20:04;;;;;;;50.22;27.80;;;3.90;79.10;;;;;;4917165;29;20172;-91
2021/03/08 08:22:58;;;;;;;51.05;28.98;;;3.90;78.40;;;;;;4901996;29;20172;-91
2021/03/08 08:25:25;;;;;;;48.15;29.10;;;5.50;78.70;;;;;;4896901;29;20160;-90
2021/03/08 08:27:51;;;;;;;49.33;26.65;;;4.00;78.80;;;;;;4899370;29;20183;-89
2021/03/08 08:30:23;;;;;;;64.55;29.95;;;4.00;77.80;;;;;;4900085;29;20169;-88
2021/03/08 08:33:01;;;;;;;54.28;28.23;;;4.00;78.30;;;;;;4914688;29;20276;-90
2021/03/08 08:35:34;;;;;;;50.08;29.92;;;4.00;78.60;;;;;;4914589;29;20221;-90
2021/03/08 08:38:20;;;;;;;45.47;27.80;;;4.00;78.60;;;;;;4896203;29;20173;-87
2021/03/08 08:40:49;;;;;;;51.95;30.60;;;4.60;77.10;;;;;;4915031;29;20154;-88
2021/03/08 08:43:23;;;;;;;47.58;26.75;;;4.00;78.90;;;;;;4902554;29;20184;-90
2021/03/08 08:45:53;;;;;;;51.65;28.80;;;4.90;77.50;;;;;;4901893;29;20188;-90
2021/03/08 08:48:20;;;;;;;49.78;29.13;;;4.00;77.70;;;;;;4900320;29;20188;-90
2021/03/08 08:50:55;;;;;;;52.03;28.48;;;4.20;77.60;;;;;;4916533;29;20176;-85
2021/03/08 08:53:37;;;;;;;44.55;27.30;;;4.20;78.10;;;;;;4917580;29;20192;-88
2021/03/08 08:56:09;;;;;;;53.45;31.23;;;4.20;78.70;;;;;;4900797;29;20188;-91
2021/03/08 08:59:20;;;;;;;58.60;32.10;;;1.90;73.60;;;;;;4564943;29;9999593;-90
2021/03/08 09:01:52;;;;;;;56.15;32.50;;;4.00;78.40;;;;;;4874626;29;20192;-91
2021/03/08 09:04:33;;;;;;;49.20;30.58;;;6.00;77.80;;;;;;4920332;29;20613;-91
2021/03/08 09:07:25;;;;;;;49.67;27.45;;;4.20;78.00;;;;;;4901107;29;20213;-89
2021/03/08 09:10:02;;;;;;;54.00;30.10;;;4.40;78.50;;;;;;4916531;29;20183;-89
2021/03/08 09:12:37;;;;;;;48.90;26.90;;;5.80;75.90;;;;;;4917771;29;20224;-90
2021/03/08 09:15:11;;;;;;;56.15;29.48;;;4.50;78.60;;;;;;4901628;29;20188;-90
2021/03/08 09:17:57;;;;;;;48.08;28.65;;;4.60;77.20;;;;;;4900758;29;20172;-85
2021/03/08 09:20:32;;;;;;;48.92;29.77;;;5.10;75.30;;;;;;4900728;29;20177;-88
2021/03/08 09:23:23;;;;;;;56.90;28.63;;;2.60;72.00;;;;;;4904713;29;20168;-90
2021/03/08 09:25:57;;;;;;;50.08;29.15;;;4.70;76.50;;;;;;4884438;29;20205;-87
2021/03/08 09:28:22;;;;;;;46.47;27.10;;;4.60;77.10;;;;;;4915591;29;20232;-88
2021/03/08 09:31:10;;;;;;;58.67;31.53;;;4.60;76.70;;;;;;4900138;29;20180;-89
2021/03/08 09:33:36;;;;;;;50.45;29.42;;;3.10;72.00;;;;;;4888514;29;20216;-88
2021/03/08 09:36:05;;;;;;;58.60;30.38;;;4.80;77.70;;;;;;4900085;29;20337;-86
2021/03/08 09:38:38;;;;;;;52.30;28.73;;;4.80;76.70;;;;;;4588885;29;10000908;-89
2021/03/08 09:41:08;;;;;;;71.03;33.20;;;5.90;75.80;;;;;;4936126;29;20161;-86
2021/03/08 09:43:39;;;;;;;56.25;30.08;;;4.80;77.20;;;;;;4937665;29;20156;-87
2021/03/08 09:46:20;;;;;;;55.45;31.02;;;4.90;77.70;;;;;;4920710;29;20180;-85
2021/03/08 09:49:16;;;;;;;56.10;33.35;;;4.90;76.60;;;;;;5091034;23;20284;-88
2021/03/08 09:51:42;;;;;;;91.85;34.63;;;5.40;75.20;;;;;;4876278;29;20196;-87
2021/03/08 09:54:09;;;;;;;54.77;30.27;;;4.90;76.40;;;;;;4935865;23;20292;-89
2021/03/08 09:56:41;;;;;;;59.13;34.20;;;5.20;77.20;;;;;;4883376;29;20186;-87
2021/03/08 09:59:13;;;;;;;53.35;31.33;;;5.30;76.20;;;;;;4883427;29;20189;-89
2021/03/08 10:04:18;;;;;;;53.67;32.05;;;5.60;72.80;;;;;;4942587;23;20233;-89
2021/03/08 10:06:45;;;;;;;57.20;32.63;;;5.60;75.20;;;;;;4901422;29;20169;-88
2021/03/08 10:09:27;;;;;;;64.13;33.08;;;5.60;74.80;;;;;;4883214;29;20162;-90
2021/03/08 10:12:02;;;;;;;57.90;34.05;;;5.60;75.20;;;;;;4868735;29;20201;-90
2021/03/08 10:14:39;;;;;;;69.53;36.50;;;5.40;75.50;;;;;;4883500;29;20176;-89
2021/03/08 10:17:14;;;;;;;56.45;33.20;;;6.60;74.60;;;;;;4884895;29;20343;-89
2021/03/08 10:19:56;;;;;;;63.37;34.20;;;5.40;76.10;;;;;;4883920;29;20200;-89
2021/03/08 10:22:58;;;;;;;64.72;32.40;;;6.20;73.80;;;;;;4884140;29;20922;-91
2021/03/08 10:25:32;;;;;;;60.45;31.65;;;6.30;72.30;;;;;;4900880;29;20168;-87
2021/03/08 10:28:04;;;;;;;58.10;32.90;;;5.80;74.80;;;;;;4884427;29;20173;-90
2021/03/08 10:31:08;;;;;;;69.32;33.50;;;6.80;76.70;;;;;;4882987;29;20201;-87
2021/03/08 10:33:37;;;;;;;66.78;31.95;;;5.00;71.40;;;;;;4884900;29;20208;-89
2021/03/08 10:36:03;;;;;;;62.13;34.53;;;6.70;72.80;;;;;;4883622;29;20185;-89
2021/03/08 10:41:32;;;;;;;57.85;32.55;;;6.00;75.40;;;;;;4902100;29;20196;-91
2021/03/08 10:44:32;;;;;;;64.00;34.00;;;5.90;75.90;;;;;;4883226;29;20173;-88
2021/03/08 10:47:13;;;;;;;64.03;33.67;;;8.50;76.20;;;;;;4864727;29;20197;-90
2021/03/08 10:50:05;;;;;;;62.40;34.10;;;8.10;74.90;;;;;;4882814;29;20189;-89
2021/03/08 10:52:34;;;;;;;79.97;38.20;;;6.60;72.60;;;;;;4869227;29;20232;-87
2021/03/08 10:55:25;;;;;;;63.97;32.20;;;6.00;75.50;;;;;;4900365;29;20189;-88
2021/03/08 10:58:01;;;;;;;65.82;32.78;;;8.10;75.40;;;;;;4874443;29;20185;-86
2021/03/08 11:00:33;;;;;;;72.55;35.45;;;6.60;73.00;;;;;;4883728;29;20241;-88
2021/03/08 11:03:00;;;;;;;70.05;36.30;;;6.20;75.20;;;;;;4898504;29;20257;-84
2021/03/08 11:06:12;;;;;;;69.60;36.58;;;6.30;75.60;;;;;;4897466;29;20182;-86
2021/03/08 11:08:55;;;;;;;77.63;35.70;;;8.00;75.90;;;;;;4881809;29;20768;-85
2021/03/08 11:11:29;;;;;;;74.97;38.42;;;6.10;75.60;;;;;;4864947;29;20175;-89
2021/03/08 11:14:22;;;;;;;73.40;37.97;;;6.20;72.30;;;;;;4527858;29;9999569;-87
2021/03/08 11:16:59;;;;;;;74.38;39.83;;;8.90;75.80;;;;;;4863090;29;20194;-85
2021/03/08 11:19:29;;;;;;;77.60;38.67;;;6.30;74.80;;;;;;4880286;29;20244;-87
2021/03/08 11:22:09;;;;;;;91.80;41.85;;;6.80;71.90;;;;;;4880525;29;20253;-88
2021/03/08 11:24:49;;;;;;;81.38;38.90;;;8.90;75.20;;;;;;4863478;29;20162;-88
2021/03/08 11:27:24;;;;;;;85.90;39.45;;;6.30;71.10;;;;;;4878133;29;20189;-83
2021/03/08 11:30:10;;;;;;;87.20;41.47;;;6.70;73.00;;;;;;4878435;29;20170;-89
2021/03/08 11:32:52;;;;;;;96.47;42.03;;;6.20;72.50;;;;;;4878781;29;20252;-86
2021/03/08 11:35:25;;;;;;;93.65;42.25;;;6.30;75.00;;;;;;4930747;23;20177;-86
2021/03/08 11:37:58;;;;;;;99.67;43.00;;;7.00;72.90;;;;;;4858731;29;20458;-89
2021/03/08 11:43:07;;;;;;;99.47;45.33;;;6.60;71.50;;;;;;4951257;23;20225;-88
2021/03/08 11:45:44;;;;;;;84.43;41.67;;;6.60;74.20;;;;;;4898513;29;20193;-89
2021/03/08 11:50:47;;;;;;;83.53;42.45;;;6.80;70.40;;;;;;5173989;23;20501;-87
2021/03/08 11:53:14;;;;;;;78.03;39.15;;;7.20;73.80;;;;;;4883898;29;20297;-89
2021/03/08 11:58:45;;;;;;;80.88;38.97;;;6.80;73.50;;;;;;4885222;23;20234;-83
2021/03/08 12:01:42;;;;;;;79.50;38.97;;;6.90;72.40;;;;;;4879803;29;20185;-89
2021/03/08 12:04:28;;;;;;;74.95;39.05;;;6.80;67.80;;;;;;4881005;29;20474;-87
2021/03/08 12:07:02;;;;;;;74.43;39.08;;;6.90;71.90;;;;;;4878059;29;20747;-87
2021/03/08 12:09:35;;;;;;;85.28;44.72;;;7.00;72.20;;;;;;4984014;23;20298;-88
2021/03/08 12:12:01;;;;;;;83.95;40.45;;;7.00;71.50;;;;;;4879543;24;20313;-87
2021/03/08 12:14:29;;;;;;;84.77;42.47;;;6.90;71.70;;;;;;4862805;29;20186;-88
2021/03/08 12:16:56;;;;;;;79.72;41.55;;;6.70;68.30;;;;;;4861562;29;20443;-87
2021/03/08 12:19:23;;;;;;;92.15;47.03;;;6.70;71.10;;;;;;4860655;29;20208;-87
2021/03/08 12:21:58;;;;;;;102.07;49.38;;;8.40;73.30;;;;;;4865374;29;20591;-89
2021/03/08 12:24:23;;;;;;;104.63;49.53;;;6.80;72.60;;;;;;4881712;29;20201;-89
2021/03/08 12:26:49;;;;;;;105.00;50.03;;;6.70;72.60;;;;;;4881408;29;20174;-92
2021/03/08 12:29:22;;;;;;;105.53;48.80;;;7.00;71.90;;;;;;4880438;29;20178;-88
2021/03/08 12:31:52;;;;;;;104.93;49.80;;;8.70;70.30;;;;;;4856978;29;20179;-90
2021/03/08 12:34:18;;;;;;;117.45;55.22;;;8.30;69.40;;;;;;4856060;29;20404;-88
2021/03/08 12:39:32;;;;;;;121.93;53.20;;;7.10;71.00;;;;;;4345988;27;10001930;-84
2021/03/08 12:41:57;;;;;;;121.30;53.60;;;6.90;71.30;;;;;;5234276;23;20221;-92
2021/03/08 12:44:36;;;;;;;114.90;52.90;;;6.80;70.90;;;;;;4901050;29;20212;-88
2021/03/08 12:47:08;;;;;;;120.85;52.08;;;7.90;69.80;;;;;;5031689;23;20243;-89
2021/03/08 12:49:34;;;;;;;99.68;47.13;;;7.00;70.70;;;;;;4886130;29;20192;-91
2021/03/08 12:52:17;;;;;;;110.97;49.57;;;6.90;70.70;;;;;;4902266;29;20304;-90
2021/03/08 12:54:42;;;;;;;95.88;48.38;;;6.80;70.60;;;;;;4901293;29;20566;-88
2021/03/08 12:57:08;;;;;;;109.30;46.70;;;7.00;71.70;;;;;;4902067;29;20169;-88
2021/03/08 12:59:37;;;;;;;106.03;46.60;;;6.50;70.20;;;;;;4883591;29;20180;-87
2021/03/08 13:02:10;;;;;;;100.70;49.10;;;6.80;70.70;;;;;;4900238;29;20174;-90
2021/03/08 13:04:36;;;;;;;121.23;52.17;;;6.10;67.80;;;;;;4852446;29;20206;-91
2021/03/08 13:07:03;;;;;;;108.23;49.37;;;6.70;71.50;;;;;;4882184;29;20405;-89
2021/03/08 13:09:35;;;;;;;117.32;53.53;;;7.90;70.60;;;;;;4869010;29;20201;-89
2021/03/08 13:14:33;;;;;;;132.67;56.50;;;6.90;67.20;;;;;;4881662;29;20237;-87
2021/03/08 13:16:59;;;;;;;116.13;51.58;;;6.90;66.70;;;;;;4970431;23;20500;-88
2021/03/08 13:19:24;;;;;;;124.70;51.57;;;6.70;69.80;;;;;;4865247;29;20194;-87
2021/03/08 13:21:50;;;;;;;128.10;56.07;;;6.80;70.20;;;;;;4992636;23;20249;-86
2021/03/08 13:24:19;;;;;;;112.47;51.10;;;7.00;70.30;;;;;;4885147;29;20174;-89
2021/03/08 13:26:53;;;;;;;128.17;55.37;;;7.10;70.70;;;;;;4883695;29;20630;-89
2021/03/08 13:29:36;;;;;;;126.55;51.88;;;7.00;65.80;;;;;;4884669;29;20436;-85
2021/03/08 13:32:02;;;;;;;108.03;52.30;;;7.10;69.40;;;;;;4870593;29;20221;-86
2021/03/08 13:34:28;;;;;;;107.80;49.63;;;7.20;68.50;;;;;;4900997;29;20422;-84
2021/03/08 13:39:43;;;;;;;111.95;51.40;;;7.20;70.30;;;;;;5057934;23;20498;-88
2021/03/08 13:42:14;;;;;;;119.00;50.73;;;7.10;69.30;;;;;;4676569;23;10000134;-89
2021/03/08 13:44:46;;;;;;;108.05;46.70;;;6.50;64.00;;;;;;4914769;23;20227;-88
2021/03/08 13:47:12;;;;;;;123.07;53.72;;;7.00;68.40;;;;;;4936093;29;20163;-86
2021/03/08 13:49:41;;;;;;;127.40;55.17;;;7.10;69.20;;;;;;4917288;29;20239;-85
2021/03/08 13:52:07;;;;;;;116.47;50.47;;;7.60;67.40;;;;;;5014740;23;20233;-86
2021/03/08 13:54:34;;;;;;;128.43;53.07;;;7.00;68.90;;;;;;4896902;29;20180;-87
2021/03/08 13:57:00;;;;;;;121.32;56.25;;;7.10;69.30;;;;;;4880253;29;20563;-87
2021/03/08 14:02:32;;;;;;;137.20;55.90;;;7.50;65.70;;;;;;4899336;29;20424;-87
2021/03/08 14:07:53;;;;;;;114.07;50.87;;;7.20;66.70;;;;;;4914609;29;20310;-89
2021/03/08 14:10:57;;;;;;;129.33;54.97;;;7.20;67.70;;;;;;4897587;29;20440;-89
2021/03/08 14:13:32;;;;;;;137.85;56.30;;;5.40;61.10;;;;;;4900779;29;20484;-89
2021/03/08 14:16:11;;;;;;;126.22;55.40;;;7.50;66.80;;;;;;4903201;29;20597;-89
2021/03/08 14:18:38;;;;;;;149.02;60.83;;;7.50;66.70;;;;;;4901461;29;20181;-89
2021/03/08 14:21:05;;;;;;;130.77;58.13;;;7.60;64.00;;;;;;4902086;29;20200;-90
2021/03/08 14:23:42;;;;;;;110.53;54.88;;;7.50;65.60;;;;;;4892708;29;20432;-88
2021/03/08 14:26:19;;;;;;;127.03;57.13;;;9.90;66.50;;;;;;4918406;29;20164;-89
2021/03/08 14:28:59;;;;;;;150.60;58.05;;;7.70;67.00;;;;;;4917782;29;20161;-90
2021/03/08 14:31:49;;;;;;;132.75;58.45;;;9.00;65.70;;;;;;4886158;29;20195;-89
2021/03/08 14:34:29;;;;;;;123.60;51.55;;;7.20;62.50;;;;;;4916917;29;20175;-89
2021/03/08 14:36:58;;;;;;;127.47;55.55;;;10.30;65.00;;;;;;4897837;29;20248;-89
2021/03/08 14:39:30;;;;;;;144.10;63.75;;;7.80;65.90;;;;;;4892760;29;20185;-87
2021/03/08 14:42:12;;;;;;;144.73;59.73;;;7.70;66.00;;;;;;4912275;29;20630;-87
2021/03/08 14:44:44;;;;;;;144.07;61.88;;;10.30;65.30;;;;;;4900914;29;20411;-89
2021/03/08 14:47:11;;;;;;;137.53;57.90;;;7.90;65.90;;;;;;4886378;29;20177;-88
2021/03/08 14:49:37;;;;;;;149.40;64.03;;;7.90;65.10;;;;;;4914722;29;20524;-90
2021/03/08 14:52:04;;;;;;;149.77;60.83;;;7.80;64.90;;;;;;4896296;29;20464;-88
2021/03/08 14:54:39;;;;;;;148.48;63.72;;;8.00;65.10;;;;;;4895503;29;20200;-89
2021/03/08 14:57:26;;;;;;;153.47;68.13;;;8.60;63.80;;;;;;4913044;29;20183;-87
2021/03/08 15:00:03;;;;;;;156.15;66.53;;;9.40;63.70;;;;;;4897875;29;20421;-89
2021/03/08 15:02:33;;;;;;;154.50;69.35;;;8.30;60.90;;;;;;4900963;29;20192;-87
2021/03/08 15:05:00;;;;;;;140.02;63.08;;;8.50;61.90;;;;;;4917346;29;20175;-86
2021/03/08 15:07:34;;;;;;;146.43;64.80;;;8.60;61.70;;;;;;4881475;29;20364;-87
2021/03/08 15:10:08;;;;;;;143.77;67.05;;;8.90;58.70;;;;;;4875060;29;20248;-87
2021/03/08 15:12:45;;;;;;;138.77;59.55;;;9.90;58.70;;;;;;4884421;29;20211;-89
2021/03/08 15:15:23;;;;;;;147.98;64.32;;;9.60;58.60;;;;;;4886334;29;20161;-87
2021/03/08 15:18:23;;;;;;;160.07;66.15;;;8.90;59.60;;;;;;4913716;29;20225;-86
2021/03/08 15:21:26;;;;;;;;;;;;;;;;;;;;;
2021/03/08 15:24:03;;;;;;;150.53;63.73;;;11.10;59.50;;;;;;4908403;29;20668;-87
2021/03/08 15:26:28;;;;;;;136.80;60.75;;;8.50;59.40;;;;;;4900574;29;20469;-86
2021/03/08 15:28:57;;;;;;;160.73;70.67;;;8.30;60.10;;;;;;4898830;29;20164;-87
2021/03/08 15:31:54;;;;;;;148.15;70.25;;;8.30;60.20;;;;;;4898364;29;20189;-89
2021/03/08 15:34:40;;;;;;;136.60;62.10;;;10.70;59.30;;;;;;4911200;29;20204;-89
2021/03/08 15:37:10;;;;;;;141.65;63.13;;;10.80;59.20;;;;;;4896008;29;20443;-87
2021/03/08 15:39:38;;;;;;;136.40;64.43;;;7.70;59.10;;;;;;4897897;29;20180;-89
2021/03/08 15:42:09;;;;;;;115.80;55.58;;;8.50;59.50;;;;;;4893076;29;20425;-89
2021/03/08 15:44:38;;;;;;;134.87;59.93;;;8.50;58.00;;;;;;4908976;29;20181;-89
2021/03/08 15:47:05;;;;;;;142.80;64.30;;;8.40;59.20;;;;;;5103229;23;20432;-88
2021/03/08 15:49:31;;;;;;;145.27;64.20;;;7.10;58.90;;;;;;4525044;29;10001953;-88
2021/03/08 15:52:00;;;;;;;158.07;66.60;;;8.20;60.10;;;;;;4858108;29;20443;-88
2021/03/08 15:54:28;;;;;;;146.10;66.50;;;8.20;59.80;;;;;;4862189;29;20514;-90
2021/03/08 15:57:00;;;;;;;152.25;68.15;;;8.10;60.00;;;;;;4876897;29;20427;-87
2021/03/08 15:59:37;;;;;;;153.50;68.47;;;8.00;61.00;;;;;;5025118;23;20250;-89
2021/03/08 16:02:32;;;;;;;153.70;68.43;;;8.00;61.30;;;;;;4870125;29;20439;-87
2021/03/08 16:05:01;;;;;;;149.80;68.07;;;7.90;62.70;;;;;;4881088;29;20153;-89
2021/03/08 16:07:56;;;;;;;152.47;65.40;;;7.80;59.20;;;;;;4862402;29;20467;-88
2021/03/08 16:10:49;;;;;;;142.38;63.30;;;8.50;59.70;;;;;;4881050;29;20442;-87
2021/03/08 16:13:45;;;;;;;149.70;64.57;;;7.70;58.60;;;;;;4876325;29;20599;-86
2021/03/08 16:16:30;;;;;;;137.30;64.32;;;10.30;59.80;;;;;;4864139;29;20192;-87
2021/03/08 16:18:57;;;;;;;126.65;60.08;;;5.40;57.80;;;;;;4864637;29;20190;-89
2021/03/08 16:21:24;;;;;;;153.20;63.50;;;8.80;63.50;;;;;;4866463;29;20233;-89
2021/03/08 16:23:51;;;;;;;154.80;63.90;;;7.80;61.50;;;;;;4864614;29;20430;-88
2021/03/08 16:26:23;;;;;;;132.65;62.90;;;6.80;60.40;;;;;;4866061;29;20200;-88
2021/03/08 16:28:55;;;;;;;150.55;68.43;;;7.80;62.90;;;;;;4865783;29;20154;-88
2021/03/08 16:31:31;;;;;;;145.57;65.85;;;7.60;62.40;;;;;;4864737;29;20178;-87
2021/03/08 16:34:03;;;;;;;141.93;60.65;;;10.10;61.40;;;;;;4879967;29;20245;-90